sensor_id;sensor_type;location;lat;lon;timestamp;P1;durP1;ratioP1;P2;durP2;ratioP2
41799;SDS011;27468;47.460;19.034;2022-12-07T00:01:07;32.63;;;16.13;;
41799;SDS011;27468;47.460;19.034;2022-12-07T00:03:33;33.73;;;16.93;;
41799;SDS011;27468;47.460;19.034;2022-12-07T00:06:00;35.13;;;17.50;;
41799;SDS011;27468;47.460;19.034;2022-12-07T00:08:27;32.37;;;16.93;;
41799;SDS011;27468;47.460;19.034;2022-12-07T00:10:53;34.63;;;16.67;;
41799;SDS011;27468;47.460;19.034;2022-12-07T00:13:18;32.47;;;17.00;;
41799;SDS011;27468;47.460;19.034;2022-12-07T00:15:44;32.47;;;15.87;;
41799;SDS011;27468;47.460;19.034;2022-12-07T00:18:10;33.90;;;17.07;;
41799;SDS011;27468;47.460;19.034;2022-12-07T00:20:35;30.97;;;16.33;;
41799;SDS011;27468;47.460;19.034;2022-12-07T00:23:00;31.87;;;15.80;;
41799;SDS011;27468;47.460;19.034;2022-12-07T00:25:26;31.13;;;16.13;;
41799;SDS011;27468;47.460;19.034;2022-12-07T00:27:52;32.80;;;16.17;;
41799;SDS011;27468;47.460;19.034;2022-12-07T00:30:20;33.93;;;16.33;;
41799;SDS011;27468;47.460;19.034;2022-12-07T00:32:46;37.23;;;16.87;;
41799;SDS011;27468;47.460;19.034;2022-12-07T00:35:11;32.43;;;16.10;;
41799;SDS011;27468;47.460;19.034;2022-12-07T00:37:37;37.17;;;16.43;;
41799;SDS011;27468;47.460;19.034;2022-12-07T00:40:02;34.43;;;16.67;;
41799;SDS011;27468;47.460;19.034;2022-12-07T00:42:28;39.03;;;17.93;;
41799;SDS011;27468;47.460;19.034;2022-12-07T00:44:53;34.93;;;17.37;;
41799;SDS011;27468;47.460;19.034;2022-12-07T00:47:18;37.23;;;16.87;;
41799;SDS011;27468;47.460;19.034;2022-12-07T00:49:44;36.27;;;17.40;;
41799;SDS011;27468;47.460;19.034;2022-12-07T00:52:09;34.10;;;16.57;;
41799;SDS011;27468;47.460;19.034;2022-12-07T00:54:34;37.40;;;17.60;;
41799;SDS011;27468;47.460;19.034;2022-12-07T00:57:00;38.70;;;18.20;;
41799;SDS011;27468;47.460;19.034;2022-12-07T00:59:25;32.43;;;15.77;;
41799;SDS011;27468;47.460;19.034;2022-12-07T01:01:51;32.97;;;16.43;;
41799;SDS011;27468;47.460;19.034;2022-12-07T01:04:16;35.97;;;16.80;;
41799;SDS011;27468;47.460;19.034;2022-12-07T01:06:41;34.43;;;16.43;;
41799;SDS011;27468;47.460;19.034;2022-12-07T01:09:07;37.60;;;17.63;;
41799;SDS011;27468;47.460;19.034;2022-12-07T01:11:32;36.97;;;16.97;;
41799;SDS011;27468;47.460;19.034;2022-12-07T01:13:58;37.90;;;16.70;;
41799;SDS011;27468;47.460;19.034;2022-12-07T01:16:25;36.07;;;18.30;;
41799;SDS011;27468;47.460;19.034;2022-12-07T01:18:53;39.00;;;18.77;;
41799;SDS011;27468;47.460;19.034;2022-12-07T01:21:20;38.53;;;18.30;;
41799;SDS011;27468;47.460;19.034;2022-12-07T01:23:51;39.92;;;18.52;;
41799;SDS011;27468;47.460;19.034;2022-12-07T01:26:18;39.77;;;17.93;;
41799;SDS011;27468;47.460;19.034;2022-12-07T01:28:45;41.50;;;18.47;;
41799;SDS011;27468;47.460;19.034;2022-12-07T01:31:12;37.87;;;17.43;;
41799;SDS011;27468;47.460;19.034;2022-12-07T01:33:46;37.83;;;17.13;;
41799;SDS011;27468;47.460;19.034;2022-12-07T01:36:23;37.70;;;17.27;;
41799;SDS011;27468;47.460;19.034;2022-12-07T01:38:50;39.80;;;18.47;;
41799;SDS011;27468;47.460;19.034;2022-12-07T01:41:17;39.07;;;17.17;;
41799;SDS011;27468;47.460;19.034;2022-12-07T01:49:38;43.17;;;19.53;;
41799;SDS011;27468;47.460;19.034;2022-12-07T01:52:15;44.37;;;19.57;;
41799;SDS011;27468;47.460;19.034;2022-12-07T01:54:50;45.90;;;20.00;;
41799;SDS011;27468;47.460;19.034;2022-12-07T01:57:19;45.63;;;19.80;;
41799;SDS011;27468;47.460;19.034;2022-12-07T01:59:47;49.97;;;20.70;;
41799;SDS011;27468;47.460;19.034;2022-12-07T02:02:19;43.33;;;18.83;;
41799;SDS011;27468;47.460;19.034;2022-12-07T02:04:51;39.70;;;18.30;;
41799;SDS011;27468;47.460;19.034;2022-12-07T02:07:18;40.40;;;16.90;;
41799;SDS011;27468;47.460;19.034;2022-12-07T02:09:45;39.93;;;17.50;;
41799;SDS011;27468;47.460;19.034;2022-12-07T02:12:10;34.67;;;17.30;;
41799;SDS011;27468;47.460;19.034;2022-12-07T02:14:36;36.23;;;17.17;;
41799;SDS011;27468;47.460;19.034;2022-12-07T02:17:25;32.17;;;16.50;;
41799;SDS011;27468;47.460;19.034;2022-12-07T02:31:38;30.95;;;15.32;;
41799;SDS011;27468;47.460;19.034;2022-12-07T02:36:49;27.73;;;15.07;;
41799;SDS011;27468;47.460;19.034;2022-12-07T02:39:24;29.60;;;16.00;;
41799;SDS011;27468;47.460;19.034;2022-12-07T02:42:01;28.93;;;15.30;;
41799;SDS011;27468;47.460;19.034;2022-12-07T02:46:59;28.13;;;14.50;;
41799;SDS011;27468;47.460;19.034;2022-12-07T02:49:28;29.83;;;14.87;;
41799;SDS011;27468;47.460;19.034;2022-12-07T02:51:55;28.47;;;14.70;;
41799;SDS011;27468;47.460;19.034;2022-12-07T02:54:21;29.10;;;15.00;;
41799;SDS011;27468;47.460;19.034;2022-12-07T02:56:48;27.67;;;14.67;;
41799;SDS011;27468;47.460;19.034;2022-12-07T03:02:28;27.30;;;14.37;;
41799;SDS011;27468;47.460;19.034;2022-12-07T03:19:03;29.30;;;15.73;;
41799;SDS011;27468;47.460;19.034;2022-12-07T03:21:38;31.30;;;17.03;;
41799;SDS011;27468;47.460;19.034;2022-12-07T03:24:07;31.27;;;17.05;;
41799;SDS011;27468;47.460;19.034;2022-12-07T03:26:38;30.50;;;16.50;;
41799;SDS011;27468;47.460;19.034;2022-12-07T03:29:08;29.83;;;16.63;;
41799;SDS011;27468;47.460;19.034;2022-12-07T03:31:40;32.10;;;17.40;;
41799;SDS011;27468;47.460;19.034;2022-12-07T03:34:11;28.93;;;17.03;;
41799;SDS011;27468;47.460;19.034;2022-12-07T03:41:56;27.63;;;16.37;;
41799;SDS011;27468;47.460;19.034;2022-12-07T03:44:24;27.40;;;16.40;;
41799;SDS011;27468;47.460;19.034;2022-12-07T03:57:31;24.43;;;13.97;;
41799;SDS011;27468;47.460;19.034;2022-12-07T03:59:59;23.60;;;14.17;;
41799;SDS011;27468;47.460;19.034;2022-12-07T04:02:26;26.73;;;14.13;;
41799;SDS011;27468;47.460;19.034;2022-12-07T04:04:54;23.27;;;13.80;;
41799;SDS011;27468;47.460;19.034;2022-12-07T04:07:20;23.85;;;13.95;;
41799;SDS011;27468;47.460;19.034;2022-12-07T04:09:46;23.30;;;14.33;;
41799;SDS011;27468;47.460;19.034;2022-12-07T04:12:11;24.47;;;14.40;;
41799;SDS011;27468;47.460;19.034;2022-12-07T04:14:37;22.63;;;12.50;;
41799;SDS011;27468;47.460;19.034;2022-12-07T04:17:02;19.50;;;11.95;;
41799;SDS011;27468;47.460;19.034;2022-12-07T04:19:32;22.67;;;13.57;;
41799;SDS011;27468;47.460;19.034;2022-12-07T04:21:59;22.33;;;13.68;;
41799;SDS011;27468;47.460;19.034;2022-12-07T04:24:26;21.30;;;13.87;;
41799;SDS011;27468;47.460;19.034;2022-12-07T04:26:52;21.93;;;13.30;;
41799;SDS011;27468;47.460;19.034;2022-12-07T04:29:17;21.47;;;12.97;;
41799;SDS011;27468;47.460;19.034;2022-12-07T04:31:43;22.37;;;13.73;;
41799;SDS011;27468;47.460;19.034;2022-12-07T04:34:09;20.70;;;13.32;;
41799;SDS011;27468;47.460;19.034;2022-12-07T04:36:35;23.27;;;13.77;;
41799;SDS011;27468;47.460;19.034;2022-12-07T04:39:02;22.23;;;13.67;;
41799;SDS011;27468;47.460;19.034;2022-12-07T04:41:29;22.92;;;13.85;;
41799;SDS011;27468;47.460;19.034;2022-12-07T04:43:54;20.88;;;13.27;;
41799;SDS011;27468;47.460;19.034;2022-12-07T04:46:24;23.15;;;13.55;;
41799;SDS011;27468;47.460;19.034;2022-12-07T04:48:50;21.45;;;13.50;;
41799;SDS011;27468;47.460;19.034;2022-12-07T04:51:19;23.88;;;15.00;;
41799;SDS011;27468;47.460;19.034;2022-12-07T04:53:49;22.92;;;13.77;;
41799;SDS011;27468;47.460;19.034;2022-12-07T04:56:15;27.15;;;15.77;;
41799;SDS011;27468;47.460;19.034;2022-12-07T04:58:42;25.50;;;15.70;;
41799;SDS011;27468;47.460;19.034;2022-12-07T05:01:08;27.97;;;17.27;;
41799;SDS011;27468;47.460;19.034;2022-12-07T05:03:34;28.47;;;17.37;;
41799;SDS011;27468;47.460;19.034;2022-12-07T05:06:00;31.00;;;17.80;;
41799;SDS011;27468;47.460;19.034;2022-12-07T05:08:26;31.15;;;18.23;;
41799;SDS011;27468;47.460;19.034;2022-12-07T05:10:51;34.88;;;19.13;;
41799;SDS011;27468;47.460;19.034;2022-12-07T05:13:17;36.70;;;21.10;;
41799;SDS011;27468;47.460;19.034;2022-12-07T05:15:42;33.15;;;20.23;;
41799;SDS011;27468;47.460;19.034;2022-12-07T05:18:09;33.53;;;19.83;;
41799;SDS011;27468;47.460;19.034;2022-12-07T05:20:37;33.08;;;20.23;;
41799;SDS011;27468;47.460;19.034;2022-12-07T05:23:03;34.80;;;20.77;;
41799;SDS011;27468;47.460;19.034;2022-12-07T05:25:29;32.40;;;19.80;;
41799;SDS011;27468;47.460;19.034;2022-12-07T05:27:55;34.92;;;20.42;;
41799;SDS011;27468;47.460;19.034;2022-12-07T05:30:21;32.85;;;19.83;;
41799;SDS011;27468;47.460;19.034;2022-12-07T05:32:48;36.60;;;21.42;;
41799;SDS011;27468;47.460;19.034;2022-12-07T05:35:13;37.80;;;21.40;;
41799;SDS011;27468;47.460;19.034;2022-12-07T05:37:39;32.42;;;19.73;;
41799;SDS011;27468;47.460;19.034;2022-12-07T05:40:04;34.22;;;19.73;;
41799;SDS011;27468;47.460;19.034;2022-12-07T05:42:30;35.75;;;19.80;;
41799;SDS011;27468;47.460;19.034;2022-12-07T05:44:56;39.75;;;21.60;;
41799;SDS011;27468;47.460;19.034;2022-12-07T05:47:21;41.38;;;23.63;;
41799;SDS011;27468;47.460;19.034;2022-12-07T05:49:46;35.67;;;20.27;;
41799;SDS011;27468;47.460;19.034;2022-12-07T05:52:12;37.47;;;21.08;;
41799;SDS011;27468;47.460;19.034;2022-12-07T05:54:37;38.13;;;21.53;;
41799;SDS011;27468;47.460;19.034;2022-12-07T05:57:03;37.33;;;22.52;;
41799;SDS011;27468;47.460;19.034;2022-12-07T05:59:28;39.72;;;23.42;;
41799;SDS011;27468;47.460;19.034;2022-12-07T06:01:58;40.42;;;23.65;;
41799;SDS011;27468;47.460;19.034;2022-12-07T06:04:26;39.47;;;24.40;;
41799;SDS011;27468;47.460;19.034;2022-12-07T06:06:54;39.00;;;23.67;;
41799;SDS011;27468;47.460;19.034;2022-12-07T06:09:20;38.78;;;22.98;;
41799;SDS011;27468;47.460;19.034;2022-12-07T06:11:46;44.88;;;23.90;;
41799;SDS011;27468;47.460;19.034;2022-12-07T06:14:44;39.58;;;23.33;;
41799;SDS011;27468;47.460;19.034;2022-12-07T06:17:10;46.50;;;25.48;;
41799;SDS011;27468;47.460;19.034;2022-12-07T06:19:37;45.60;;;24.67;;
41799;SDS011;27468;47.460;19.034;2022-12-07T06:22:03;44.28;;;24.88;;
41799;SDS011;27468;47.460;19.034;2022-12-07T06:24:29;42.10;;;24.90;;
41799;SDS011;27468;47.460;19.034;2022-12-07T06:26:55;43.20;;;24.17;;
41799;SDS011;27468;47.460;19.034;2022-12-07T06:29:21;46.10;;;25.13;;
41799;SDS011;27468;47.460;19.034;2022-12-07T06:31:47;47.75;;;26.85;;
41799;SDS011;27468;47.460;19.034;2022-12-07T06:34:14;45.03;;;25.73;;
41799;SDS011;27468;47.460;19.034;2022-12-07T06:36:41;46.78;;;25.58;;
41799;SDS011;27468;47.460;19.034;2022-12-07T06:39:07;46.63;;;26.52;;
41799;SDS011;27468;47.460;19.034;2022-12-07T06:41:34;49.03;;;27.65;;
41799;SDS011;27468;47.460;19.034;2022-12-07T06:44:01;52.28;;;29.27;;
41799;SDS011;27468;47.460;19.034;2022-12-07T06:46:27;52.22;;;28.38;;
41799;SDS011;27468;47.460;19.034;2022-12-07T06:48:52;53.00;;;29.98;;
41799;SDS011;27468;47.460;19.034;2022-12-07T06:51:17;50.03;;;27.88;;
41799;SDS011;27468;47.460;19.034;2022-12-07T06:53:43;56.85;;;34.15;;
41799;SDS011;27468;47.460;19.034;2022-12-07T06:56:08;51.40;;;29.25;;
41799;SDS011;27468;47.460;19.034;2022-12-07T06:58:34;48.75;;;28.13;;
41799;SDS011;27468;47.460;19.034;2022-12-07T07:00:59;51.43;;;28.17;;
41799;SDS011;27468;47.460;19.034;2022-12-07T07:03:24;54.13;;;29.20;;
41799;SDS011;27468;47.460;19.034;2022-12-07T07:05:50;49.60;;;28.10;;
41799;SDS011;27468;47.460;19.034;2022-12-07T07:08:15;47.80;;;24.85;;
41799;SDS011;27468;47.460;19.034;2022-12-07T07:10:41;42.75;;;23.67;;
41799;SDS011;27468;47.460;19.034;2022-12-07T07:13:07;40.97;;;23.05;;
41799;SDS011;27468;47.460;19.034;2022-12-07T07:15:33;41.10;;;23.50;;
41799;SDS011;27468;47.460;19.034;2022-12-07T07:17:59;41.70;;;23.08;;
41799;SDS011;27468;47.460;19.034;2022-12-07T07:20:25;37.30;;;20.70;;
41799;SDS011;27468;47.460;19.034;2022-12-07T07:22:53;35.78;;;18.80;;
41799;SDS011;27468;47.460;19.034;2022-12-07T07:25:19;32.53;;;17.92;;
41799;SDS011;27468;47.460;19.034;2022-12-07T07:27:45;27.85;;;16.40;;
41799;SDS011;27468;47.460;19.034;2022-12-07T07:30:10;30.95;;;17.27;;
41799;SDS011;27468;47.460;19.034;2022-12-07T07:32:36;31.27;;;16.58;;
41799;SDS011;27468;47.460;19.034;2022-12-07T07:35:02;30.58;;;17.75;;
41799;SDS011;27468;47.460;19.034;2022-12-07T07:37:27;26.77;;;16.30;;
41799;SDS011;27468;47.460;19.034;2022-12-07T07:39:53;29.42;;;16.60;;
41799;SDS011;27468;47.460;19.034;2022-12-07T07:42:18;29.27;;;16.23;;
41799;SDS011;27468;47.460;19.034;2022-12-07T07:44:44;30.83;;;15.65;;
41799;SDS011;27468;47.460;19.034;2022-12-07T07:47:09;30.80;;;17.23;;
41799;SDS011;27468;47.460;19.034;2022-12-07T07:49:35;32.35;;;18.25;;
41799;SDS011;27468;47.460;19.034;2022-12-07T07:52:00;32.40;;;18.10;;
41799;SDS011;27468;47.460;19.034;2022-12-07T07:54:25;34.35;;;19.00;;
41799;SDS011;27468;47.460;19.034;2022-12-07T07:56:51;30.52;;;17.77;;
41799;SDS011;27468;47.460;19.034;2022-12-07T07:59:17;29.40;;;17.60;;
41799;SDS011;27468;47.460;19.034;2022-12-07T08:01:43;28.77;;;17.13;;
41799;SDS011;27468;47.460;19.034;2022-12-07T08:04:08;27.42;;;16.00;;
41799;SDS011;27468;47.460;19.034;2022-12-07T08:06:34;22.73;;;15.38;;
41799;SDS011;27468;47.460;19.034;2022-12-07T08:08:59;24.70;;;15.25;;
41799;SDS011;27468;47.460;19.034;2022-12-07T08:11:25;27.90;;;16.33;;
41799;SDS011;27468;47.460;19.034;2022-12-07T08:13:50;27.27;;;15.85;;
41799;SDS011;27468;47.460;19.034;2022-12-07T08:16:16;26.73;;;15.65;;
41799;SDS011;27468;47.460;19.034;2022-12-07T08:18:43;25.50;;;15.40;;
41799;SDS011;27468;47.460;19.034;2022-12-07T08:21:12;26.20;;;15.70;;
41799;SDS011;27468;47.460;19.034;2022-12-07T08:23:39;25.75;;;15.43;;
41799;SDS011;27468;47.460;19.034;2022-12-07T08:26:06;24.58;;;14.68;;
41799;SDS011;27468;47.460;19.034;2022-12-07T08:28:33;22.20;;;13.60;;
41799;SDS011;27468;47.460;19.034;2022-12-07T08:31:00;26.80;;;15.18;;
41799;SDS011;27468;47.460;19.034;2022-12-07T08:33:26;24.67;;;14.35;;
41799;SDS011;27468;47.460;19.034;2022-12-07T08:35:52;23.77;;;15.05;;
41799;SDS011;27468;47.460;19.034;2022-12-07T08:38:17;25.17;;;15.57;;
41799;SDS011;27468;47.460;19.034;2022-12-07T08:40:42;24.40;;;14.77;;
41799;SDS011;27468;47.460;19.034;2022-12-07T08:43:08;23.90;;;14.27;;
41799;SDS011;27468;47.460;19.034;2022-12-07T08:45:33;25.27;;;14.80;;
41799;SDS011;27468;47.460;19.034;2022-12-07T08:48:04;23.15;;;14.90;;
41799;SDS011;27468;47.460;19.034;2022-12-07T08:50:33;25.50;;;13.93;;
41799;SDS011;27468;47.460;19.034;2022-12-07T08:53:01;22.95;;;13.85;;
41799;SDS011;27468;47.460;19.034;2022-12-07T08:55:29;23.67;;;14.25;;
41799;SDS011;27468;47.460;19.034;2022-12-07T08:57:55;23.98;;;14.38;;
41799;SDS011;27468;47.460;19.034;2022-12-07T09:00:25;21.27;;;13.35;;
41799;SDS011;27468;47.460;19.034;2022-12-07T09:02:52;23.20;;;15.48;;
41799;SDS011;27468;47.460;19.034;2022-12-07T09:05:18;26.02;;;14.13;;
41799;SDS011;27468;47.460;19.034;2022-12-07T09:07:44;23.92;;;13.82;;
41799;SDS011;27468;47.460;19.034;2022-12-07T09:10:13;21.70;;;13.00;;
41799;SDS011;27468;47.460;19.034;2022-12-07T09:12:38;20.60;;;13.18;;
41799;SDS011;27468;47.460;19.034;2022-12-07T09:15:04;23.65;;;14.18;;
41799;SDS011;27468;47.460;19.034;2022-12-07T09:17:31;20.63;;;12.93;;
41799;SDS011;27468;47.460;19.034;2022-12-07T09:19:58;21.77;;;13.75;;
41799;SDS011;27468;47.460;19.034;2022-12-07T09:22:23;23.73;;;14.25;;
41799;SDS011;27468;47.460;19.034;2022-12-07T09:24:51;24.67;;;14.63;;
41799;SDS011;27468;47.460;19.034;2022-12-07T09:27:17;19.33;;;11.75;;
41799;SDS011;27468;47.460;19.034;2022-12-07T09:29:43;18.80;;;12.40;;
41799;SDS011;27468;47.460;19.034;2022-12-07T09:32:08;20.30;;;11.75;;
41799;SDS011;27468;47.460;19.034;2022-12-07T09:34:34;17.75;;;11.27;;
41799;SDS011;27468;47.460;19.034;2022-12-07T09:37:00;20.45;;;11.25;;
41799;SDS011;27468;47.460;19.034;2022-12-07T09:39:27;14.65;;;9.70;;
41799;SDS011;27468;47.460;19.034;2022-12-07T09:41:53;15.52;;;10.02;;
41799;SDS011;27468;47.460;19.034;2022-12-07T09:44:23;17.77;;;11.43;;
41799;SDS011;27468;47.460;19.034;2022-12-07T09:46:50;18.42;;;11.77;;
41799;SDS011;27468;47.460;19.034;2022-12-07T09:49:19;14.65;;;9.20;;
41799;SDS011;27468;47.460;19.034;2022-12-07T09:51:47;13.75;;;8.35;;
41799;SDS011;27468;47.460;19.034;2022-12-07T09:54:14;12.48;;;8.15;;
41799;SDS011;27468;47.460;19.034;2022-12-07T09:56:40;11.77;;;7.93;;
41799;SDS011;27468;47.460;19.034;2022-12-07T09:59:10;13.20;;;8.70;;
41799;SDS011;27468;47.460;19.034;2022-12-07T10:01:42;13.40;;;8.70;;
41799;SDS011;27468;47.460;19.034;2022-12-07T10:04:15;13.27;;;8.65;;
41799;SDS011;27468;47.460;19.034;2022-12-07T10:06:43;11.82;;;7.88;;
41799;SDS011;27468;47.460;19.034;2022-12-07T10:09:12;12.75;;;8.35;;
41799;SDS011;27468;47.460;19.034;2022-12-07T10:17:39;11.35;;;7.88;;
41799;SDS011;27468;47.460;19.034;2022-12-07T10:22:36;13.32;;;8.48;;
41799;SDS011;27468;47.460;19.034;2022-12-07T10:25:09;12.93;;;8.68;;
41799;SDS011;27468;47.460;19.034;2022-12-07T10:27:43;14.70;;;9.27;;
41799;SDS011;27468;47.460;19.034;2022-12-07T10:30:12;12.57;;;8.98;;
41799;SDS011;27468;47.460;19.034;2022-12-07T10:32:40;16.67;;;9.90;;
41799;SDS011;27468;47.460;19.034;2022-12-07T10:35:25;12.65;;;9.00;;
41799;SDS011;27468;47.460;19.034;2022-12-07T10:37:53;12.07;;;7.80;;
41799;SDS011;27468;47.460;19.034;2022-12-07T10:43:05;9.13;;;6.20;;
41799;SDS011;27468;47.460;19.034;2022-12-07T10:48:54;8.63;;;6.00;;
41799;SDS011;27468;47.460;19.034;2022-12-07T10:54:45;11.52;;;8.07;;
41799;SDS011;27468;47.460;19.034;2022-12-07T10:57:34;10.48;;;6.40;;
41799;SDS011;27468;47.460;19.034;2022-12-07T11:00:21;10.57;;;6.55;;
41799;SDS011;27468;47.460;19.034;2022-12-07T11:08:56;10.40;;;5.90;;
41799;SDS011;27468;47.460;19.034;2022-12-07T11:11:30;9.30;;;6.55;;
41799;SDS011;27468;47.460;19.034;2022-12-07T11:14:05;11.07;;;6.50;;
41799;SDS011;27468;47.460;19.034;2022-12-07T11:25:15;9.32;;;5.72;;
41799;SDS011;27468;47.460;19.034;2022-12-07T11:30:55;10.32;;;6.38;;
41799;SDS011;27468;47.460;19.034;2022-12-07T11:39:02;10.43;;;6.68;;
41799;SDS011;27468;47.460;19.034;2022-12-07T11:41:34;9.52;;;6.70;;
41799;SDS011;27468;47.460;19.034;2022-12-07T11:44:21;9.70;;;6.50;;
41799;SDS011;27468;47.460;19.034;2022-12-07T11:50:03;8.55;;;6.50;;
41799;SDS011;27468;47.460;19.034;2022-12-07T11:52:32;9.15;;;6.60;;
41799;SDS011;27468;47.460;19.034;2022-12-07T11:55:05;9.23;;;6.35;;
41799;SDS011;27468;47.460;19.034;2022-12-07T11:57:42;8.30;;;6.13;;
41799;SDS011;27468;47.460;19.034;2022-12-07T12:00:14;10.20;;;6.57;;
41799;SDS011;27468;47.460;19.034;2022-12-07T12:05:23;8.80;;;6.28;;
41799;SDS011;27468;47.460;19.034;2022-12-07T12:08:13;11.52;;;6.95;;
41799;SDS011;27468;47.460;19.034;2022-12-07T12:21:27;9.15;;;6.57;;
41799;SDS011;27468;47.460;19.034;2022-12-07T12:26:26;9.82;;;6.35;;
41799;SDS011;27468;47.460;19.034;2022-12-07T12:31:32;8.70;;;6.40;;
41799;SDS011;27468;47.460;19.034;2022-12-07T12:34:02;10.75;;;6.85;;
41799;SDS011;27468;47.460;19.034;2022-12-07T12:39:11;8.85;;;6.47;;
41799;SDS011;27468;47.460;19.034;2022-12-07T12:49:41;10.18;;;6.35;;
41799;SDS011;27468;47.460;19.034;2022-12-07T12:54:54;9.55;;;6.20;;
41799;SDS011;27468;47.460;19.034;2022-12-07T12:57:38;10.02;;;6.50;;
41799;SDS011;27468;47.460;19.034;2022-12-07T13:02:50;11.43;;;7.15;;
41799;SDS011;27468;47.460;19.034;2022-12-07T13:05:39;11.13;;;7.15;;
41799;SDS011;27468;47.460;19.034;2022-12-07T13:08:13;11.02;;;7.30;;
41799;SDS011;27468;47.460;19.034;2022-12-07T13:10:46;9.82;;;7.05;;
41799;SDS011;27468;47.460;19.034;2022-12-07T13:18:37;9.10;;;6.13;;
41799;SDS011;27468;47.460;19.034;2022-12-07T13:31:33;10.20;;;6.60;;
41799;SDS011;27468;47.460;19.034;2022-12-07T13:33:59;9.52;;;6.47;;
41799;SDS011;27468;47.460;19.034;2022-12-07T13:36:33;9.25;;;6.30;;
41799;SDS011;27468;47.460;19.034;2022-12-07T13:41:43;10.52;;;6.63;;
41799;SDS011;27468;47.460;19.034;2022-12-07T13:44:10;9.38;;;6.13;;
41799;SDS011;27468;47.460;19.034;2022-12-07T13:49:14;9.43;;;6.10;;
41799;SDS011;27468;47.460;19.034;2022-12-07T13:51:42;12.10;;;6.40;;
41799;SDS011;27468;47.460;19.034;2022-12-07T13:54:09;9.98;;;6.50;;
41799;SDS011;27468;47.460;19.034;2022-12-07T13:56:37;9.40;;;6.18;;
41799;SDS011;27468;47.460;19.034;2022-12-07T13:59:05;9.80;;;6.05;;
41799;SDS011;27468;47.460;19.034;2022-12-07T14:01:37;12.32;;;6.43;;
41799;SDS011;27468;47.460;19.034;2022-12-07T14:04:16;11.10;;;5.97;;
41799;SDS011;27468;47.460;19.034;2022-12-07T14:06:58;10.23;;;6.40;;
41799;SDS011;27468;47.460;19.034;2022-12-07T14:09:26;8.73;;;5.95;;
41799;SDS011;27468;47.460;19.034;2022-12-07T14:11:54;9.45;;;6.53;;
41799;SDS011;27468;47.460;19.034;2022-12-07T14:14:22;9.80;;;6.22;;
41799;SDS011;27468;47.460;19.034;2022-12-07T14:16:58;10.55;;;6.63;;
41799;SDS011;27468;47.460;19.034;2022-12-07T14:22:21;12.15;;;6.65;;
41799;SDS011;27468;47.460;19.034;2022-12-07T14:25:26;11.77;;;7.35;;
41799;SDS011;27468;47.460;19.034;2022-12-07T14:30:24;12.23;;;7.18;;
41799;SDS011;27468;47.460;19.034;2022-12-07T14:32:57;11.27;;;6.75;;
41799;SDS011;27468;47.460;19.034;2022-12-07T14:35:25;12.05;;;7.40;;
41799;SDS011;27468;47.460;19.034;2022-12-07T14:37:51;11.52;;;7.43;;
41799;SDS011;27468;47.460;19.034;2022-12-07T14:40:21;12.63;;;7.25;;
41799;SDS011;27468;47.460;19.034;2022-12-07T14:42:53;11.90;;;7.32;;
41799;SDS011;27468;47.460;19.034;2022-12-07T14:45:22;12.55;;;7.80;;
41799;SDS011;27468;47.460;19.034;2022-12-07T14:47:48;15.73;;;8.18;;
41799;SDS011;27468;47.460;19.034;2022-12-07T14:50:15;14.82;;;8.18;;
41799;SDS011;27468;47.460;19.034;2022-12-07T14:52:43;14.82;;;8.43;;
41799;SDS011;27468;47.460;19.034;2022-12-07T14:55:20;14.70;;;8.65;;
41799;SDS011;27468;47.460;19.034;2022-12-07T14:57:49;13.40;;;8.13;;
41799;SDS011;27468;47.460;19.034;2022-12-07T15:00:15;14.10;;;8.52;;
41799;SDS011;27468;47.460;19.034;2022-12-07T15:02:43;18.08;;;8.90;;
41799;SDS011;27468;47.460;19.034;2022-12-07T15:05:09;15.23;;;8.25;;
41799;SDS011;27468;47.460;19.034;2022-12-07T15:07:35;16.98;;;8.50;;
41799;SDS011;27468;47.460;19.034;2022-12-07T15:10:01;15.35;;;9.23;;
41799;SDS011;27468;47.460;19.034;2022-12-07T15:12:26;15.77;;;8.90;;
41799;SDS011;27468;47.460;19.034;2022-12-07T15:14:52;16.05;;;8.80;;
41799;SDS011;27468;47.460;19.034;2022-12-07T15:17:17;16.40;;;9.13;;
41799;SDS011;27468;47.460;19.034;2022-12-07T15:19:42;17.05;;;9.40;;
41799;SDS011;27468;47.460;19.034;2022-12-07T15:22:08;16.85;;;9.32;;
41799;SDS011;27468;47.460;19.034;2022-12-07T15:24:35;19.08;;;10.13;;
41799;SDS011;27468;47.460;19.034;2022-12-07T15:27:01;18.55;;;9.98;;
41799;SDS011;27468;47.460;19.034;2022-12-07T15:29:27;21.05;;;10.07;;
41799;SDS011;27468;47.460;19.034;2022-12-07T15:31:53;23.92;;;12.23;;
41799;SDS011;27468;47.460;19.034;2022-12-07T15:34:18;25.60;;;11.38;;
41799;SDS011;27468;47.460;19.034;2022-12-07T15:36:44;24.85;;;13.35;;
41799;SDS011;27468;47.460;19.034;2022-12-07T15:39:09;23.58;;;12.02;;
41799;SDS011;27468;47.460;19.034;2022-12-07T15:41:35;24.90;;;12.43;;
41799;SDS011;27468;47.460;19.034;2022-12-07T15:44:01;25.38;;;11.93;;
41799;SDS011;27468;47.460;19.034;2022-12-07T15:46:45;23.90;;;12.63;;
41799;SDS011;27468;47.460;19.034;2022-12-07T15:49:11;24.55;;;13.07;;
41799;SDS011;27468;47.460;19.034;2022-12-07T15:51:42;22.55;;;12.93;;
41799;SDS011;27468;47.460;19.034;2022-12-07T15:54:21;27.52;;;15.13;;
41799;SDS011;27468;47.460;19.034;2022-12-07T15:56:47;32.58;;;18.77;;
41799;SDS011;27468;47.460;19.034;2022-12-07T15:59:12;34.20;;;19.80;;
41799;SDS011;27468;47.460;19.034;2022-12-07T16:01:39;36.25;;;20.83;;
41799;SDS011;27468;47.460;19.034;2022-12-07T16:04:04;40.63;;;21.38;;
41799;SDS011;27468;47.460;19.034;2022-12-07T16:06:30;37.40;;;19.45;;
41799;SDS011;27468;47.460;19.034;2022-12-07T16:08:55;35.73;;;17.90;;
41799;SDS011;27468;47.460;19.034;2022-12-07T16:11:20;32.73;;;17.03;;
41799;SDS011;27468;47.460;19.034;2022-12-07T16:13:46;34.80;;;16.30;;
41799;SDS011;27468;47.460;19.034;2022-12-07T16:16:12;29.00;;;15.87;;
41799;SDS011;27468;47.460;19.034;2022-12-07T16:18:39;32.17;;;16.17;;
41799;SDS011;27468;47.460;19.034;2022-12-07T16:21:05;33.70;;;16.73;;
41799;SDS011;27468;47.460;19.034;2022-12-07T16:23:30;31.13;;;16.23;;
41799;SDS011;27468;47.460;19.034;2022-12-07T16:26:10;34.30;;;16.40;;
41799;SDS011;27468;47.460;19.034;2022-12-07T16:28:38;36.63;;;17.97;;
41799;SDS011;27468;47.460;19.034;2022-12-07T16:31:22;36.53;;;17.70;;
41799;SDS011;27468;47.460;19.034;2022-12-07T16:33:49;38.20;;;20.00;;
41799;SDS011;27468;47.460;19.034;2022-12-07T16:36:16;38.97;;;20.37;;
41799;SDS011;27468;47.460;19.034;2022-12-07T16:38:42;44.53;;;21.10;;
41799;SDS011;27468;47.460;19.034;2022-12-07T16:41:08;42.80;;;21.30;;
41799;SDS011;27468;47.460;19.034;2022-12-07T16:43:34;38.17;;;20.23;;
41799;SDS011;27468;47.460;19.034;2022-12-07T16:46:00;41.87;;;20.83;;
41799;SDS011;27468;47.460;19.034;2022-12-07T16:48:26;45.40;;;22.83;;
41799;SDS011;27468;47.460;19.034;2022-12-07T16:50:53;46.27;;;23.37;;
41799;SDS011;27468;47.460;19.034;2022-12-07T16:53:19;42.27;;;22.10;;
41799;SDS011;27468;47.460;19.034;2022-12-07T16:55:46;48.33;;;22.90;;
41799;SDS011;27468;47.460;19.034;2022-12-07T16:58:13;49.00;;;22.50;;
41799;SDS011;27468;47.460;19.034;2022-12-07T17:00:40;43.83;;;22.27;;